createdAt,value
2023-03-02T00:00:16.127Z,6.13
2023-03-02T00:02:22.564Z,6.22
2023-03-02T00:04:53.332Z,6.13
2023-03-02T00:07:00.265Z,5.97
2023-03-02T00:09:02.192Z,6.55
2023-03-02T00:11:06.431Z,6.63
2023-03-02T00:13:14.611Z,5.55
2023-03-02T00:15:21.844Z,6.05
2023-03-02T00:17:29.359Z,8.38
2023-03-02T00:19:31.298Z,5.95
2023-03-02T00:21:33.064Z,6.63
2023-03-02T00:23:38.187Z,5.72
2023-03-02T00:25:43.212Z,5.47
2023-03-02T00:27:45.093Z,5.30
2023-03-02T00:29:49.673Z,4.75
2023-03-02T00:31:54.407Z,5.30
2023-03-02T00:33:59.140Z,4.60
2023-03-02T00:36:01.529Z,5.07
2023-03-02T00:38:03.331Z,4.50
2023-03-02T00:40:09.613Z,4.72
2023-03-02T00:42:11.351Z,4.45
2023-03-02T00:44:17.581Z,5.18
2023-03-02T00:46:20.768Z,4.75
2023-03-02T00:48:23.053Z,4.50
2023-03-02T00:50:30.440Z,4.90
2023-03-02T00:52:33.317Z,5.22
2023-03-02T00:54:34.848Z,4.75
2023-03-02T00:56:36.341Z,4.70
2023-03-02T00:58:37.947Z,4.78
2023-03-02T01:00:39.564Z,5.47
2023-03-02T01:02:44.564Z,4.53
2023-03-02T01:04:49.029Z,3.78
2023-03-02T01:08:54.585Z,4.07
2023-03-02T01:13:03.145Z,3.72
2023-03-02T01:15:23.573Z,4.40
2023-03-02T01:17:25.371Z,4.20
2023-03-02T01:19:32.720Z,4.40
2023-03-02T01:21:34.465Z,4.63
2023-03-02T01:23:42.331Z,4.65
2023-03-02T01:25:46.536Z,4.38
2023-03-02T01:27:51.078Z,4.50
2023-03-02T01:29:52.664Z,4.60
2023-03-02T01:34:16.972Z,5.22
2023-03-02T01:36:24.196Z,5.03
2023-03-02T01:38:25.928Z,4.57
2023-03-02T01:40:27.473Z,4.70
2023-03-02T01:42:33.911Z,4.63
2023-03-02T01:44:35.430Z,4.88
2023-03-02T01:46:43.001Z,5.40
2023-03-02T01:48:47.278Z,5.35
2023-03-02T01:52:50.887Z,6.30
2023-03-02T01:54:53.713Z,5.85
2023-03-02T01:57:01.193Z,5.72
2023-03-02T01:59:10.003Z,5.95
2023-03-02T02:01:15.637Z,6.18
2023-03-02T02:03:21.997Z,5.22
2023-03-02T02:05:25.553Z,6.28
2023-03-02T02:07:30.029Z,6.25
2023-03-02T02:09:36.381Z,5.60
2023-03-02T02:11:42.049Z,6.53
2023-03-02T02:13:46.511Z,6.50
2023-03-02T02:15:47.959Z,6.65
2023-03-02T02:17:50.019Z,7.00
2023-03-02T02:20:16.501Z,5.20
2023-03-02T02:22:30.581Z,6.32
2023-03-02T02:24:42.306Z,5.72
2023-03-02T02:26:45.716Z,5.82
2023-03-02T02:28:57.992Z,5.95
2023-03-02T02:31:10.913Z,5.78
2023-03-02T02:33:16.870Z,6.35
2023-03-02T02:35:24.269Z,5.90
2023-03-02T02:37:48.301Z,5.60
2023-03-02T02:39:52.603Z,5.32
2023-03-02T02:41:55.462Z,4.75
2023-03-02T02:43:59.892Z,6.22
2023-03-02T02:48:05.981Z,5.63
2023-03-02T02:50:20.822Z,6.15
2023-03-02T02:52:26.527Z,5.43
2023-03-02T02:54:28.735Z,5.68
2023-03-02T02:56:39.768Z,6.22
2023-03-02T02:58:49.115Z,6.22
2023-03-02T03:00:50.907Z,6.13
2023-03-02T03:03:01.289Z,6.43
2023-03-02T03:05:03.115Z,7.47
2023-03-02T03:07:05.893Z,7.25
2023-03-02T03:09:26.900Z,6.03
2023-03-02T03:11:30.113Z,6.28
2023-03-02T03:13:34.425Z,6.47
2023-03-02T03:15:36.346Z,6.47
2023-03-02T03:17:40.969Z,6.93
2023-03-02T03:19:45.530Z,6.32
2023-03-02T03:21:53.171Z,6.30
2023-03-02T03:24:08.586Z,7.25
2023-03-02T03:26:36.458Z,6.43
2023-03-02T03:28:50.526Z,5.80
2023-03-02T03:31:17.450Z,7.05
2023-03-02T03:33:26.936Z,6.80
2023-03-02T03:35:37.221Z,6.50
2023-03-02T03:37:47.192Z,6.18
2023-03-02T03:39:59.294Z,6.43
2023-03-02T03:42:09.526Z,7.53
2023-03-02T03:44:18.906Z,6.80
2023-03-02T03:46:28.443Z,7.68
2023-03-02T03:48:41.454Z,7.63
2023-03-02T03:50:52.440Z,8.10
2023-03-02T03:53:03.920Z,7.80
2023-03-02T03:55:15.838Z,8.93
2023-03-02T03:57:21.318Z,8.27
2023-03-02T03:59:28.733Z,8.73
2023-03-02T04:01:53.448Z,10.05
2023-03-02T04:03:54.963Z,10.23
2023-03-02T04:06:18.926Z,10.65
2023-03-02T04:08:20.625Z,8.32
2023-03-02T04:10:22.306Z,9.43
2023-03-02T04:12:26.756Z,10.30
2023-03-02T04:14:31.407Z,9.82
2023-03-02T04:16:33.613Z,10.20
2023-03-02T04:18:38.074Z,10.05
2023-03-02T04:20:39.561Z,9.52
2023-03-02T04:22:45.258Z,10.00
2023-03-02T04:24:49.792Z,9.70
2023-03-02T04:26:51.379Z,9.80
2023-03-02T04:28:55.887Z,9.88
2023-03-02T04:31:00.332Z,8.98
2023-03-02T04:33:04.901Z,9.55
2023-03-02T04:37:10.742Z,10.20
2023-03-02T04:39:31.056Z,9.35
2023-03-02T04:41:32.894Z,8.80
2023-03-02T04:43:34.433Z,9.27
2023-03-02T04:45:36.005Z,9.10
2023-03-02T04:47:37.554Z,9.10
2023-03-02T04:49:39.254Z,9.10
2023-03-02T04:51:42.282Z,9.88
2023-03-02T04:53:51.422Z,9.02
2023-03-02T04:55:53.304Z,9.65
2023-03-02T04:57:58.313Z,9.32
2023-03-02T04:59:59.789Z,10.18
2023-03-02T05:02:01.838Z,9.35
2023-03-02T05:04:09.098Z,8.82
2023-03-02T05:06:10.608Z,9.23
2023-03-02T05:10:19.423Z,7.90
2023-03-02T05:12:21.719Z,10.82
2023-03-02T05:14:23.629Z,8.77
2023-03-02T05:16:25.751Z,9.55
2023-03-02T05:18:30.156Z,10.13
2023-03-02T05:20:34.958Z,10.23
2023-03-02T05:22:39.684Z,8.63
2023-03-02T05:24:43.738Z,8.73
2023-03-02T05:26:45.377Z,8.73
2023-03-02T05:28:47.137Z,8.38
2023-03-02T05:30:48.638Z,8.75
2023-03-02T05:32:50.802Z,9.98
2023-03-02T05:34:54.985Z,9.02
2023-03-02T05:36:59.478Z,8.90
2023-03-02T05:41:08.238Z,9.38
2023-03-02T05:43:28.365Z,8.77
2023-03-02T05:45:37.226Z,8.48
2023-03-02T05:47:41.369Z,8.15
2023-03-02T05:49:45.806Z,9.38
2023-03-02T05:51:47.288Z,9.63
2023-03-02T05:54:07.465Z,9.38
2023-03-02T05:56:09.432Z,8.82
2023-03-02T05:58:14.906Z,8.98
2023-03-02T06:00:17.398Z,8.55
2023-03-02T06:02:24.673Z,9.18
2023-03-02T06:04:26.367Z,8.55
2023-03-02T06:06:33.852Z,8.57
2023-03-02T06:08:40.913Z,9.23
2023-03-02T06:10:42.445Z,9.80
2023-03-02T06:14:50.979Z,8.60
2023-03-02T06:16:52.685Z,8.82
2023-03-02T06:18:59.932Z,7.93
2023-03-02T06:21:04.926Z,8.77
2023-03-02T06:23:06.386Z,8.77
2023-03-02T06:25:26.519Z,10.43
2023-03-02T06:27:30.136Z,10.60
2023-03-02T06:29:40.520Z,10.93
2023-03-02T06:31:55.667Z,10.23
2023-03-02T06:34:07.955Z,11.32
2023-03-02T06:36:25.473Z,10.60
2023-03-02T06:38:39.706Z,11.18
2023-03-02T06:40:52.799Z,12.02
2023-03-02T06:43:05.044Z,10.45
2023-03-02T06:45:14.060Z,12.40
2023-03-02T06:47:29.456Z,13.85
2023-03-02T06:49:56.997Z,12.02
2023-03-02T06:52:12.072Z,12.17
2023-03-02T06:54:24.192Z,12.77
2023-03-02T06:56:52.860Z,11.40
2023-03-02T06:59:04.882Z,11.50
2023-03-02T07:01:18.364Z,11.23
2023-03-02T07:03:22.401Z,11.68
2023-03-02T07:05:24.610Z,12.32
2023-03-02T07:07:26.160Z,12.63
2023-03-02T07:09:46.352Z,12.00
2023-03-02T07:11:47.886Z,12.25
2023-03-02T07:13:49.772Z,12.63
2023-03-02T07:15:55.006Z,11.75
2023-03-02T07:17:56.487Z,13.07
2023-03-02T07:19:58.079Z,13.48
2023-03-02T07:22:05.605Z,12.75
2023-03-02T07:24:10.168Z,12.95
2023-03-02T07:26:14.300Z,13.02
2023-03-02T07:28:15.848Z,13.20
2023-03-02T07:30:21.453Z,13.07
2023-03-02T07:32:23.221Z,12.90
2023-03-02T07:34:28.018Z,12.27
2023-03-02T07:36:32.296Z,15.63
2023-03-02T07:38:37.354Z,13.88
2023-03-02T07:40:42.050Z,15.95
2023-03-02T07:42:43.546Z,14.60
2023-03-02T07:44:48.182Z,13.23
2023-03-02T07:46:52.776Z,12.15
2023-03-02T07:49:13.312Z,13.60
2023-03-02T07:51:14.767Z,14.35
2023-03-02T07:53:16.372Z,13.30
2023-03-02T07:55:20.748Z,13.27
2023-03-02T07:57:25.191Z,12.57
2023-03-02T07:59:45.381Z,13.52
2023-03-02T08:01:46.942Z,15.43
2023-03-02T08:03:51.291Z,12.48
2023-03-02T08:06:05.905Z,13.13
2023-03-02T08:08:10.041Z,13.10
2023-03-02T08:10:12.162Z,13.63
2023-03-02T08:12:13.571Z,13.90
2023-03-02T08:14:15.055Z,13.88
2023-03-02T08:16:16.925Z,12.23
2023-03-02T08:18:21.243Z,13.18
2023-03-02T08:20:25.577Z,12.75
2023-03-02T08:22:45.720Z,13.43
2023-03-02T08:26:51.352Z,13.93
2023-03-02T08:28:55.608Z,12.73
2023-03-02T08:30:57.971Z,13.48
2023-03-02T08:33:05.923Z,13.50
2023-03-02T08:35:12.932Z,13.95
2023-03-02T08:37:17.423Z,13.77
2023-03-02T08:39:19.117Z,13.48
2023-03-02T08:41:39.323Z,12.90
2023-03-02T08:43:41.145Z,12.90
2023-03-02T08:45:46.008Z,13.27
2023-03-02T08:47:50.195Z,12.52
2023-03-02T08:49:54.338Z,11.70
2023-03-02T08:51:59.241Z,12.18
2023-03-02T08:54:00.847Z,12.00
2023-03-02T08:56:02.418Z,12.43
2023-03-02T08:58:06.755Z,14.32
2023-03-02T09:00:16.314Z,12.52
2023-03-02T09:02:20.728Z,13.70
2023-03-02T09:04:25.347Z,14.30
2023-03-02T09:06:30.268Z,12.65
2023-03-02T09:08:34.954Z,13.55
2023-03-02T09:10:39.556Z,13.23
2023-03-02T09:12:41.149Z,13.73
2023-03-02T09:14:42.590Z,13.20
2023-03-02T09:16:47.062Z,12.93
2023-03-02T09:18:48.641Z,13.77
2023-03-02T09:20:51.424Z,14.73
2023-03-02T09:22:55.558Z,15.32
2023-03-02T09:24:57.311Z,14.82
2023-03-02T09:27:01.990Z,14.93
2023-03-02T09:29:09.418Z,15.68
2023-03-02T09:31:11.341Z,15.30
2023-03-02T09:33:13.111Z,14.70
2023-03-02T09:35:18.544Z,15.90
2023-03-02T09:37:24.736Z,16.33
2023-03-02T09:39:28.619Z,16.75
2023-03-02T09:41:43.273Z,16.08
2023-03-02T09:44:03.138Z,17.67
2023-03-02T09:46:16.247Z,18.27
2023-03-02T09:48:30.940Z,17.55
2023-03-02T09:50:38.398Z,17.92
2023-03-02T09:52:53.694Z,18.10
2023-03-02T09:55:13.489Z,18.42
2023-03-02T09:57:25.263Z,18.60
2023-03-02T09:59:39.655Z,17.05
2023-03-02T10:01:52.658Z,20.13
2023-03-02T10:04:03.127Z,18.45
2023-03-02T10:06:14.568Z,19.25
2023-03-02T10:08:18.749Z,19.38
2023-03-02T10:10:25.593Z,19.45
2023-03-02T10:12:40.854Z,19.90
2023-03-02T10:14:45.136Z,18.77
2023-03-02T10:16:52.812Z,19.30
2023-03-02T10:19:12.489Z,20.50
2023-03-02T10:21:22.675Z,18.47
2023-03-02T10:23:46.180Z,17.33
2023-03-02T10:25:50.441Z,18.88
2023-03-02T10:30:01.122Z,18.65
2023-03-02T10:32:26.969Z,18.43
2023-03-02T10:34:31.533Z,17.02
2023-03-02T10:36:38.775Z,18.20
2023-03-02T10:38:46.675Z,18.00
2023-03-02T10:40:49.739Z,20.52
2023-03-02T10:42:51.819Z,19.42
2023-03-02T10:44:55.954Z,18.83
2023-03-02T10:49:01.949Z,19.50
2023-03-02T10:51:06.476Z,18.25
2023-03-02T10:53:18.702Z,20.45
2023-03-02T10:55:26.461Z,19.00
2023-03-02T10:57:38.445Z,20.55
2023-03-02T10:59:44.869Z,19.38
2023-03-02T11:01:58.189Z,19.27
2023-03-02T11:04:01.032Z,17.92
2023-03-02T11:06:22.642Z,21.00
2023-03-02T11:08:31.717Z,18.90
2023-03-02T11:10:38.019Z,19.35
2023-03-02T11:12:45.314Z,20.90
2023-03-02T11:14:46.892Z,19.48
2023-03-02T11:17:33.671Z,19.10
2023-03-02T11:19:39.385Z,19.63
2023-03-02T11:21:46.545Z,18.20
2023-03-02T11:24:00.499Z,20.60
2023-03-02T11:26:27.705Z,18.90
2023-03-02T11:28:42.037Z,20.33
2023-03-02T11:30:47.034Z,17.92
2023-03-02T11:33:11.702Z,18.52
2023-03-02T11:35:25.512Z,19.65
2023-03-02T11:37:35.478Z,19.33
2023-03-02T11:39:54.637Z,18.98
2023-03-02T11:41:56.964Z,18.90
2023-03-02T11:43:59.741Z,18.90
2023-03-02T11:46:10.802Z,19.25
2023-03-02T11:48:24.162Z,20.05
2023-03-02T11:50:25.906Z,20.17
2023-03-02T11:52:58.731Z,20.83
2023-03-02T11:55:03.155Z,20.88
2023-03-02T11:57:16.870Z,19.98
2023-03-02T11:59:19.646Z,20.20
2023-03-02T12:01:26.137Z,20.15
2023-03-02T12:03:30.413Z,19.30
2023-03-02T12:05:37.039Z,21.25
2023-03-02T12:07:46.820Z,20.13
2023-03-02T12:09:58.320Z,19.20
2023-03-02T12:12:38.834Z,20.60
2023-03-02T12:14:41.056Z,21.25
2023-03-02T12:16:46.028Z,21.27
2023-03-02T12:18:51.635Z,21.33
2023-03-02T12:21:02.359Z,20.45
2023-03-02T12:23:08.406Z,19.42
2023-03-02T12:25:18.925Z,19.40
2023-03-02T12:27:39.920Z,21.63
2023-03-02T12:29:43.941Z,20.20
2023-03-02T12:31:49.835Z,20.02
2023-03-02T12:34:21.531Z,19.83
2023-03-02T12:36:27.441Z,19.60
2023-03-02T12:38:34.797Z,18.58
2023-03-02T12:40:55.309Z,18.60
2023-03-02T12:43:09.558Z,19.65
2023-03-02T12:45:47.344Z,18.25
2023-03-02T12:48:00.255Z,18.45
2023-03-02T12:50:06.066Z,18.70
2023-03-02T12:52:24.461Z,19.13
2023-03-02T12:54:31.130Z,18.38
2023-03-02T12:56:34.755Z,18.90
2023-03-02T12:58:40.670Z,17.30
2023-03-02T13:01:04.454Z,18.83
2023-03-02T13:03:10.531Z,18.20
2023-03-02T13:05:22.475Z,17.23
2023-03-02T13:07:27.483Z,16.83
2023-03-02T13:09:31.601Z,17.60
2023-03-02T13:11:38.567Z,17.85
2023-03-02T13:13:45.532Z,17.08
2023-03-02T13:15:55.464Z,15.90
2023-03-02T13:17:58.160Z,17.98
2023-03-02T13:20:02.000Z,17.48
2023-03-02T13:22:08.682Z,17.23
2023-03-02T13:24:31.298Z,18.10
2023-03-02T13:26:37.135Z,17.55
2023-03-02T13:28:44.719Z,19.13
2023-03-02T13:30:55.820Z,18.05
2023-03-02T13:33:02.789Z,16.58
2023-03-02T13:37:22.883Z,17.90
2023-03-02T13:39:29.074Z,16.92
2023-03-02T13:41:37.092Z,16.83
2023-03-02T13:43:39.562Z,16.08
2023-03-02T13:45:50.537Z,16.80
2023-03-02T13:47:55.935Z,17.42
2023-03-02T13:50:05.999Z,16.35
2023-03-02T13:52:19.687Z,16.73
2023-03-02T13:54:41.474Z,16.65
2023-03-02T13:56:43.963Z,16.55
2023-03-02T13:58:45.751Z,14.52
2023-03-02T14:00:50.656Z,17.08
2023-03-02T14:02:57.993Z,16.08
2023-03-02T14:05:06.355Z,17.42
2023-03-02T14:07:10.791Z,17.42
2023-03-02T14:09:12.317Z,17.98
2023-03-02T14:11:18.129Z,17.95
2023-03-02T14:13:28.951Z,17.70
2023-03-02T14:15:30.571Z,17.45
2023-03-02T14:17:32.104Z,17.65
2023-03-02T14:19:36.556Z,18.48
2023-03-02T14:21:38.212Z,17.67
2023-03-02T14:23:42.371Z,17.35
2023-03-02T14:25:43.930Z,16.60
2023-03-02T14:27:47.252Z,17.38
2023-03-02T14:30:27.750Z,17.05
2023-03-02T14:32:29.394Z,17.42
2023-03-02T14:34:36.732Z,16.45
2023-03-02T14:36:58.949Z,15.98
2023-03-02T14:39:10.965Z,17.45
2023-03-02T14:41:23.130Z,15.23
2023-03-02T14:43:42.977Z,15.43
2023-03-02T14:45:45.013Z,14.70
2023-03-02T14:47:49.534Z,14.65
2023-03-02T14:49:51.736Z,15.57
2023-03-02T14:51:59.031Z,14.98
2023-03-02T14:54:05.158Z,14.98
2023-03-02T14:56:08.022Z,15.57
2023-03-02T14:58:17.028Z,14.90
2023-03-02T15:00:18.761Z,14.05
2023-03-02T15:02:26.081Z,13.55
2023-03-02T15:04:47.181Z,15.00
2023-03-02T15:06:51.799Z,15.13
2023-03-02T15:08:53.983Z,14.60
2023-03-02T15:10:55.428Z,14.55
2023-03-02T15:12:59.745Z,14.70
2023-03-02T15:15:07.118Z,14.70
2023-03-02T15:17:11.448Z,15.40
2023-03-02T15:19:15.814Z,14.77
2023-03-02T15:21:35.875Z,15.27
2023-03-02T15:23:37.312Z,14.07
2023-03-02T15:25:38.760Z,13.85
2023-03-02T15:27:43.373Z,13.52
2023-03-02T15:29:48.127Z,13.98
2023-03-02T15:31:49.828Z,13.10
2023-03-02T15:33:55.246Z,13.88
2023-03-02T15:36:00.740Z,13.57
2023-03-02T15:38:04.498Z,14.02
2023-03-02T15:40:09.744Z,13.18
2023-03-02T15:42:13.493Z,13.65
2023-03-02T15:44:34.503Z,12.63
2023-03-02T15:46:38.135Z,14.00
2023-03-02T15:48:42.585Z,13.80
2023-03-02T15:50:56.408Z,13.50
2023-03-02T15:53:03.116Z,14.73
2023-03-02T15:55:24.678Z,13.90
2023-03-02T15:57:31.032Z,13.25
2023-03-02T15:59:37.449Z,14.00
2023-03-02T16:01:40.471Z,12.75
2023-03-02T16:03:46.996Z,13.88
2023-03-02T16:05:49.383Z,14.10
2023-03-02T16:07:51.771Z,12.98
2023-03-02T16:09:57.771Z,14.13
2023-03-02T16:12:21.111Z,12.88
2023-03-02T16:14:25.217Z,12.20
2023-03-02T16:16:30.953Z,11.82
2023-03-02T16:18:33.680Z,12.82
2023-03-02T16:20:36.247Z,11.18
2023-03-02T16:22:37.709Z,12.63
2023-03-02T16:24:40.933Z,11.90
2023-03-02T16:26:46.169Z,11.73
2023-03-02T16:28:50.672Z,12.05
2023-03-02T16:30:52.172Z,11.85
2023-03-02T16:32:56.856Z,11.88
2023-03-02T16:34:58.326Z,12.60
2023-03-02T16:36:59.888Z,12.85
2023-03-02T16:39:01.577Z,13.45
2023-03-02T16:41:12.566Z,12.55
2023-03-02T16:43:16.637Z,12.10
2023-03-02T16:45:22.225Z,11.53
2023-03-02T16:47:23.670Z,11.43
2023-03-02T16:49:28.182Z,12.27
2023-03-02T16:51:29.863Z,13.10
2023-03-02T16:53:50.130Z,12.57
2023-03-02T16:55:51.816Z,13.35
2023-03-02T16:57:53.386Z,12.30
2023-03-02T17:00:15.747Z,11.18
2023-03-02T17:02:17.343Z,11.40
2023-03-02T17:04:22.069Z,11.73
2023-03-02T17:06:29.556Z,10.07
2023-03-02T17:08:50.844Z,9.85
2023-03-02T17:11:11.105Z,10.20
2023-03-02T17:13:17.146Z,10.43
2023-03-02T17:15:24.435Z,9.98
2023-03-02T17:17:26.052Z,10.85
2023-03-02T17:19:29.428Z,11.10
2023-03-02T17:21:49.389Z,10.95
2023-03-02T17:23:54.029Z,10.77
2023-03-02T17:25:56.122Z,10.88
2023-03-02T17:28:03.876Z,10.38
2023-03-02T17:30:09.457Z,10.55
2023-03-02T17:32:14.022Z,10.70
2023-03-02T17:36:19.782Z,11.50
2023-03-02T17:38:27.556Z,11.35
2023-03-02T17:40:29.290Z,11.68
2023-03-02T17:42:33.675Z,12.10
2023-03-02T17:44:38.700Z,11.88
2023-03-02T17:46:42.717Z,11.63
2023-03-02T17:48:54.063Z,11.85
2023-03-02T17:50:55.855Z,11.23
2023-03-02T17:52:57.824Z,10.90
2023-03-02T17:54:59.528Z,11.10
2023-03-02T17:57:01.212Z,12.73
2023-03-02T17:59:05.085Z,13.38
2023-03-02T18:01:13.677Z,11.30
2023-03-02T18:03:21.383Z,13.52
2023-03-02T18:05:28.939Z,12.20
2023-03-02T18:07:30.490Z,11.90
2023-03-02T18:11:36.181Z,11.63
2023-03-02T18:15:47.867Z,12.55
2023-03-02T18:17:49.640Z,12.65
2023-03-02T18:19:56.783Z,13.60
2023-03-02T18:21:58.503Z,11.85
2023-03-02T18:24:03.684Z,13.00
2023-03-02T18:26:24.481Z,11.70
2023-03-02T18:28:28.896Z,13.07
2023-03-02T18:30:33.057Z,13.43
2023-03-02T18:32:36.764Z,13.55
2023-03-02T18:34:44.311Z,11.57
2023-03-02T18:36:46.301Z,12.65
2023-03-02T18:39:06.523Z,12.93
2023-03-02T18:41:08.852Z,12.40
2023-03-02T18:43:13.067Z,12.15
2023-03-02T18:45:24.057Z,12.55
2023-03-02T18:47:33.119Z,12.45
2023-03-02T18:49:51.326Z,12.35
2023-03-02T18:52:14.676Z,12.30
2023-03-02T18:54:44.064Z,14.70
2023-03-02T18:57:03.947Z,12.40
2023-03-02T18:59:29.788Z,13.60
2023-03-02T19:01:41.114Z,12.85
2023-03-02T19:03:46.087Z,13.40
2023-03-02T19:06:07.436Z,15.00
2023-03-02T19:08:09.501Z,13.57
2023-03-02T19:10:11.496Z,12.90
2023-03-02T19:12:31.443Z,12.55
2023-03-02T19:14:39.679Z,13.50
2023-03-02T19:16:41.537Z,13.95
2023-03-02T19:18:46.029Z,13.23
2023-03-02T19:20:48.793Z,13.45
2023-03-02T19:22:56.312Z,13.45
2023-03-02T19:24:58.063Z,13.32
2023-03-02T19:27:18.220Z,14.15
2023-03-02T19:29:39.328Z,14.07
2023-03-02T19:31:41.085Z,14.20
2023-03-02T19:33:45.676Z,13.50
2023-03-02T19:35:47.261Z,14.35
2023-03-02T19:38:07.900Z,12.63
2023-03-02T19:40:17.492Z,12.15
2023-03-02T19:42:25.038Z,11.65
2023-03-02T19:44:32.458Z,12.60
2023-03-02T19:46:36.943Z,11.80
2023-03-02T19:48:38.902Z,11.05
2023-03-02T19:50:59.337Z,10.77
2023-03-02T19:53:03.842Z,13.25
2023-03-02T19:55:12.575Z,10.95
2023-03-02T19:57:20.056Z,10.70
2023-03-02T19:59:22.077Z,10.85
2023-03-02T20:01:42.105Z,9.15
2023-03-02T20:05:50.570Z,9.38
2023-03-02T20:07:57.876Z,9.30
2023-03-02T20:10:02.447Z,8.80
2023-03-02T20:12:06.073Z,9.45
2023-03-02T20:14:07.566Z,9.60
2023-03-02T20:16:13.853Z,7.97
2023-03-02T20:18:19.737Z,7.82
2023-03-02T20:20:21.442Z,8.38
2023-03-02T20:22:29.247Z,7.53
2023-03-02T20:24:33.800Z,7.85
2023-03-02T20:26:54.281Z,7.63
2023-03-02T20:29:03.673Z,6.82
2023-03-02T20:31:09.445Z,6.80
2023-03-02T20:33:11.410Z,7.72
2023-03-02T20:35:16.148Z,7.80
2023-03-02T20:37:36.706Z,7.00
2023-03-02T20:39:39.252Z,6.13
2023-03-02T20:41:46.710Z,7.03
2023-03-02T20:43:48.296Z,6.35
2023-03-02T20:45:50.233Z,6.18
2023-03-02T20:47:51.721Z,6.93
2023-03-02T20:49:55.952Z,6.22
2023-03-02T20:52:16.154Z,6.50
2023-03-02T20:54:17.676Z,6.95
2023-03-02T20:56:19.517Z,5.88
2023-03-02T20:58:23.798Z,5.28
2023-03-02T21:00:43.634Z,5.00
2023-03-02T21:02:51.395Z,5.40
2023-03-02T21:04:55.689Z,5.53
2023-03-02T21:07:00.122Z,4.63
2023-03-02T21:09:01.981Z,4.97
2023-03-02T21:11:07.206Z,5.85
2023-03-02T21:13:11.890Z,4.55
2023-03-02T21:15:13.808Z,5.10
2023-03-02T21:17:15.493Z,4.55
2023-03-02T21:21:35.673Z,5.75
2023-03-02T21:23:41.914Z,5.10
2023-03-02T21:25:44.807Z,5.97
2023-03-02T21:28:05.500Z,5.22
2023-03-02T21:30:08.059Z,5.05
2023-03-02T21:32:15.554Z,4.53
2023-03-02T21:34:18.939Z,5.05
2023-03-02T21:36:24.048Z,4.30
2023-03-02T21:38:31.493Z,4.47
2023-03-02T21:40:37.813Z,4.18
2023-03-02T21:42:45.374Z,4.25
2023-03-02T21:44:49.813Z,3.63
2023-03-02T21:53:30.758Z,3.88
2023-03-02T21:55:36.442Z,3.72
2023-03-02T21:57:41.745Z,3.40
2023-03-02T21:59:54.111Z,3.15
2023-03-02T22:02:04.604Z,3.90
2023-03-02T22:04:31.784Z,4.72
2023-03-02T22:06:41.127Z,3.53
2023-03-02T22:08:51.495Z,3.25
2023-03-02T22:10:56.368Z,3.88
2023-03-02T22:13:15.603Z,3.08
2023-03-02T22:15:25.078Z,3.30
2023-03-02T22:17:29.495Z,3.50
2023-03-02T22:19:35.567Z,4.57
2023-03-02T22:21:42.103Z,3.33
2023-03-02T22:26:26.710Z,2.92
2023-03-02T22:28:35.330Z,4.07
2023-03-02T22:30:43.582Z,3.45
2023-03-02T22:32:45.331Z,3.45
2023-03-02T22:34:53.831Z,3.78
2023-03-02T22:36:56.446Z,3.28
2023-03-02T22:39:07.040Z,3.95
2023-03-02T22:41:16.435Z,4.18
2023-03-02T22:43:25.844Z,3.00
2023-03-02T22:45:33.074Z,3.60
2023-03-02T22:47:37.172Z,2.95
2023-03-02T22:49:44.990Z,4.43
2023-03-02T22:51:52.268Z,4.55
2023-03-02T22:53:55.349Z,3.00
2023-03-02T22:55:58.592Z,3.33
2023-03-02T22:58:22.533Z,3.22
2023-03-02T23:00:40.602Z,3.17
2023-03-02T23:02:45.421Z,3.38
2023-03-02T23:04:52.869Z,3.70
2023-03-02T23:07:00.066Z,4.07
2023-03-02T23:09:07.925Z,3.75
2023-03-02T23:11:13.998Z,4.30
2023-03-02T23:13:17.637Z,3.53
2023-03-02T23:15:38.134Z,4.20
2023-03-02T23:17:42.767Z,3.83
2023-03-02T23:19:53.406Z,3.45
2023-03-02T23:21:55.036Z,4.07
2023-03-02T23:24:02.824Z,4.20
2023-03-02T23:26:07.574Z,3.55
2023-03-02T23:28:17.888Z,3.53
2023-03-02T23:30:25.425Z,3.97
2023-03-02T23:32:33.205Z,3.47
2023-03-02T23:34:34.760Z,3.70
2023-03-02T23:36:37.567Z,3.75
2023-03-02T23:38:39.569Z,3.67
2023-03-02T23:40:41.689Z,3.60
2023-03-02T23:43:02.629Z,3.05
2023-03-02T23:45:07.840Z,2.88
2023-03-02T23:47:09.329Z,3.17
2023-03-02T23:49:10.972Z,3.58
2023-03-02T23:51:15.844Z,2.72
2023-03-02T23:53:17.668Z,3.33
2023-03-02T23:55:22.135Z,3.17
2023-03-02T23:57:29.514Z,3.05
2023-03-02T23:59:49.653Z,3.53
